sensor_id;sensor_type;location;lat;lon;timestamp;P1;durP1;ratioP1;P2;durP2;ratioP2
11453;SDS011;5783;55.174;61.310;2022-09-13T00:01:23;2.40;;;2.20;;
11453;SDS011;5783;55.174;61.310;2022-09-13T00:03:52;2.60;;;2.40;;
11453;SDS011;5783;55.174;61.310;2022-09-13T00:06:22;2.37;;;2.17;;
11453;SDS011;5783;55.174;61.310;2022-09-13T00:08:51;2.50;;;2.30;;
11453;SDS011;5783;55.174;61.310;2022-09-13T00:14:09;2.40;;;2.20;;
11453;SDS011;5783;55.174;61.310;2022-09-13T00:16:38;2.17;;;1.97;;
11453;SDS011;5783;55.174;61.310;2022-09-13T00:19:07;2.43;;;2.23;;
11453;SDS011;5783;55.174;61.310;2022-09-13T00:21:36;3.00;;;2.47;;
11453;SDS011;5783;55.174;61.310;2022-09-13T00:24:05;2.40;;;2.20;;
11453;SDS011;5783;55.174;61.310;2022-09-13T00:26:35;2.40;;;2.20;;
11453;SDS011;5783;55.174;61.310;2022-09-13T00:29:04;2.50;;;2.30;;
11453;SDS011;5783;55.174;61.310;2022-09-13T00:31:33;2.30;;;2.10;;
11453;SDS011;5783;55.174;61.310;2022-09-13T00:34:02;2.50;;;2.30;;
11453;SDS011;5783;55.174;61.310;2022-09-13T00:36:31;2.50;;;2.30;;
11453;SDS011;5783;55.174;61.310;2022-09-13T00:39:00;2.50;;;2.30;;
11453;SDS011;5783;55.174;61.310;2022-09-13T00:41:29;2.40;;;2.20;;
11453;SDS011;5783;55.174;61.310;2022-09-13T00:43:59;2.53;;;2.23;;
11453;SDS011;5783;55.174;61.310;2022-09-13T00:49:21;2.40;;;2.20;;
11453;SDS011;5783;55.174;61.310;2022-09-13T00:51:53;3.70;;;2.37;;
11453;SDS011;5783;55.174;61.310;2022-09-13T00:54:25;2.47;;;2.23;;
11453;SDS011;5783;55.174;61.310;2022-09-13T00:56:57;2.50;;;2.30;;
11453;SDS011;5783;55.174;61.310;2022-09-13T01:05:29;2.60;;;2.40;;
11453;SDS011;5783;55.174;61.310;2022-09-13T01:08:01;2.57;;;2.37;;
11453;SDS011;5783;55.174;61.310;2022-09-13T01:10:32;2.50;;;2.30;;
11453;SDS011;5783;55.174;61.310;2022-09-13T01:13:05;2.70;;;2.50;;
11453;SDS011;5783;55.174;61.310;2022-09-13T01:15:37;2.50;;;2.30;;
11453;SDS011;5783;55.174;61.310;2022-09-13T01:18:06;2.57;;;2.37;;
11453;SDS011;5783;55.174;61.310;2022-09-13T01:20:40;2.60;;;2.40;;
11453;SDS011;5783;55.174;61.310;2022-09-13T01:36:04;2.23;;;2.03;;
11453;SDS011;5783;55.174;61.310;2022-09-13T01:48:16;2.50;;;2.30;;
11453;SDS011;5783;55.174;61.310;2022-09-13T02:00:31;2.27;;;2.00;;
11453;SDS011;5783;55.174;61.310;2022-09-13T02:14:43;2.60;;;2.40;;
11453;SDS011;5783;55.174;61.310;2022-09-13T02:17:15;2.73;;;2.53;;
11453;SDS011;5783;55.174;61.310;2022-09-13T02:19:49;2.33;;;2.13;;
11453;SDS011;5783;55.174;61.310;2022-09-13T02:22:38;2.30;;;2.10;;
11453;SDS011;5783;55.174;61.310;2022-09-13T02:25:09;2.60;;;2.40;;
11453;SDS011;5783;55.174;61.310;2022-09-13T02:27:42;2.80;;;2.50;;
11453;SDS011;5783;55.174;61.310;2022-09-13T02:30:12;2.97;;;2.67;;
11453;SDS011;5783;55.174;61.310;2022-09-13T02:38:15;3.13;;;2.83;;
11453;SDS011;5783;55.174;61.310;2022-09-13T02:40:38;3.57;;;2.80;;
11453;SDS011;5783;55.174;61.310;2022-09-13T03:01:05;3.50;;;3.00;;
11453;SDS011;5783;55.174;61.310;2022-09-13T03:03:34;3.50;;;3.00;;
11453;SDS011;5783;55.174;61.310;2022-09-13T03:06:04;4.57;;;3.43;;
11453;SDS011;5783;55.174;61.310;2022-09-13T03:08:33;4.70;;;3.30;;
11453;SDS011;5783;55.174;61.310;2022-09-13T03:20:11;6.40;;;3.53;;
11453;SDS011;5783;55.174;61.310;2022-09-13T03:41:15;5.33;;;3.30;;
11453;SDS011;5783;55.174;61.310;2022-09-13T03:49:09;5.03;;;3.13;;
11453;SDS011;5783;55.174;61.310;2022-09-13T03:54:30;5.73;;;3.47;;
11453;SDS011;5783;55.174;61.310;2022-09-13T03:59:53;5.80;;;3.60;;
11453;SDS011;5783;55.174;61.310;2022-09-13T04:02:24;4.47;;;3.37;;
11453;SDS011;5783;55.174;61.310;2022-09-13T04:04:54;4.67;;;3.30;;
11453;SDS011;5783;55.174;61.310;2022-09-13T04:07:24;4.20;;;3.17;;
11453;SDS011;5783;55.174;61.310;2022-09-13T04:09:53;4.43;;;3.00;;
11453;SDS011;5783;55.174;61.310;2022-09-13T04:12:22;4.60;;;3.50;;
11453;SDS011;5783;55.174;61.310;2022-09-13T04:14:52;5.40;;;3.40;;
11453;SDS011;5783;55.174;61.310;2022-09-13T04:17:21;4.33;;;3.30;;
11453;SDS011;5783;55.174;61.310;2022-09-13T04:19:50;5.23;;;3.30;;
11453;SDS011;5783;55.174;61.310;2022-09-13T04:22:19;4.90;;;3.53;;
11453;SDS011;5783;55.174;61.310;2022-09-13T04:24:50;5.90;;;3.43;;
11453;SDS011;5783;55.174;61.310;2022-09-13T04:27:19;3.47;;;2.87;;
11453;SDS011;5783;55.174;61.310;2022-09-13T04:29:48;5.20;;;3.47;;
11453;SDS011;5783;55.174;61.310;2022-09-13T04:32:17;5.00;;;3.30;;
11453;SDS011;5783;55.174;61.310;2022-09-13T04:34:46;4.17;;;3.40;;
11453;SDS011;5783;55.174;61.310;2022-09-13T04:37:15;4.90;;;3.30;;
11453;SDS011;5783;55.174;61.310;2022-09-13T04:39:46;5.37;;;3.33;;
11453;SDS011;5783;55.174;61.310;2022-09-13T04:42:15;4.90;;;3.30;;
11453;SDS011;5783;55.174;61.310;2022-09-13T04:44:44;5.43;;;3.37;;
11453;SDS011;5783;55.174;61.310;2022-09-13T04:47:15;5.70;;;3.20;;
11453;SDS011;5783;55.174;61.310;2022-09-13T04:49:44;5.33;;;3.30;;
11453;SDS011;5783;55.174;61.310;2022-09-13T04:52:13;7.43;;;3.43;;
11453;SDS011;5783;55.174;61.310;2022-09-13T04:54:42;5.60;;;3.30;;
11453;SDS011;5783;55.174;61.310;2022-09-13T04:57:13;6.73;;;3.47;;
11453;SDS011;5783;55.174;61.310;2022-09-13T04:59:43;7.70;;;3.60;;
11453;SDS011;5783;55.174;61.310;2022-09-13T05:02:12;6.50;;;3.63;;
11453;SDS011;5783;55.174;61.310;2022-09-13T05:04:41;6.07;;;3.47;;
11453;SDS011;5783;55.174;61.310;2022-09-13T05:07:10;9.13;;;4.10;;
11453;SDS011;5783;55.174;61.310;2022-09-13T05:09:39;8.93;;;4.30;;
11453;SDS011;5783;55.174;61.310;2022-09-13T05:12:08;5.87;;;4.13;;
11453;SDS011;5783;55.174;61.310;2022-09-13T05:14:37;8.00;;;3.90;;
11453;SDS011;5783;55.174;61.310;2022-09-13T05:17:07;6.73;;;3.73;;
11453;SDS011;5783;55.174;61.310;2022-09-13T05:19:36;8.97;;;4.10;;
11453;SDS011;5783;55.174;61.310;2022-09-13T05:22:05;9.40;;;3.90;;
11453;SDS011;5783;55.174;61.310;2022-09-13T05:24:35;9.60;;;3.93;;
11453;SDS011;5783;55.174;61.310;2022-09-13T05:27:04;8.70;;;3.70;;
11453;SDS011;5783;55.174;61.310;2022-09-13T05:29:33;11.30;;;3.50;;
11453;SDS011;5783;55.174;61.310;2022-09-13T05:32:03;7.57;;;3.80;;
11453;SDS011;5783;55.174;61.310;2022-09-13T05:34:32;9.47;;;4.43;;
11453;SDS011;5783;55.174;61.310;2022-09-13T05:37:01;10.73;;;4.43;;
11453;SDS011;5783;55.174;61.310;2022-09-13T05:39:30;9.70;;;3.90;;
11453;SDS011;5783;55.174;61.310;2022-09-13T05:42:01;12.53;;;4.47;;
11453;SDS011;5783;55.174;61.310;2022-09-13T05:44:30;10.23;;;4.03;;
11453;SDS011;5783;55.174;61.310;2022-09-13T05:46:59;7.33;;;4.47;;
11453;SDS011;5783;55.174;61.310;2022-09-13T05:49:28;15.67;;;5.20;;
11453;SDS011;5783;55.174;61.310;2022-09-13T05:51:57;9.47;;;4.60;;
11453;SDS011;5783;55.174;61.310;2022-09-13T05:54:26;8.60;;;5.50;;
11453;SDS011;5783;55.174;61.310;2022-09-13T05:56:55;9.37;;;5.83;;
11453;SDS011;5783;55.174;61.310;2022-09-13T05:59:24;10.43;;;5.80;;
11453;SDS011;5783;55.174;61.310;2022-09-13T06:01:54;12.37;;;7.80;;
11453;SDS011;5783;55.174;61.310;2022-09-13T06:04:23;14.83;;;8.17;;
11453;SDS011;5783;55.174;61.310;2022-09-13T06:06:52;12.07;;;8.13;;
11453;SDS011;5783;55.174;61.310;2022-09-13T06:09:21;12.77;;;8.10;;
11453;SDS011;5783;55.174;61.310;2022-09-13T06:11:50;12.10;;;8.03;;
11453;SDS011;5783;55.174;61.310;2022-09-13T06:14:19;13.47;;;8.97;;
11453;SDS011;5783;55.174;61.310;2022-09-13T06:16:48;13.90;;;8.70;;
11453;SDS011;5783;55.174;61.310;2022-09-13T06:19:17;13.83;;;8.00;;
11453;SDS011;5783;55.174;61.310;2022-09-13T06:21:48;12.33;;;7.53;;
11453;SDS011;5783;55.174;61.310;2022-09-13T06:24:17;11.87;;;7.20;;
11453;SDS011;5783;55.174;61.310;2022-09-13T06:26:48;12.20;;;6.90;;
11453;SDS011;5783;55.174;61.310;2022-09-13T06:29:17;12.03;;;9.03;;
11453;SDS011;5783;55.174;61.310;2022-09-13T06:31:46;13.60;;;9.13;;
11453;SDS011;5783;55.174;61.310;2022-09-13T06:34:15;16.47;;;10.33;;
11453;SDS011;5783;55.174;61.310;2022-09-13T06:36:44;15.30;;;10.93;;
11453;SDS011;5783;55.174;61.310;2022-09-13T06:39:14;18.93;;;10.53;;
11453;SDS011;5783;55.174;61.310;2022-09-13T06:41:43;15.77;;;10.50;;
11453;SDS011;5783;55.174;61.310;2022-09-13T06:44:12;13.80;;;10.17;;
11453;SDS011;5783;55.174;61.310;2022-09-13T06:46:41;15.73;;;11.50;;
11453;SDS011;5783;55.174;61.310;2022-09-13T06:49:10;18.00;;;11.00;;
11453;SDS011;5783;55.174;61.310;2022-09-13T06:51:39;16.27;;;10.77;;
11453;SDS011;5783;55.174;61.310;2022-09-13T06:54:08;39.97;;;30.63;;
11453;SDS011;5783;55.174;61.310;2022-09-13T06:56:37;52.47;;;44.00;;
11453;SDS011;5783;55.174;61.310;2022-09-13T06:59:07;93.07;;;65.57;;
11453;SDS011;5783;55.174;61.310;2022-09-13T07:07:36;25.10;;;16.70;;
11453;SDS011;5783;55.174;61.310;2022-09-13T07:10:05;13.20;;;9.53;;
11453;SDS011;5783;55.174;61.310;2022-09-13T07:12:41;13.27;;;9.33;;
11453;SDS011;5783;55.174;61.310;2022-09-13T07:15:10;11.40;;;7.97;;
11453;SDS011;5783;55.174;61.310;2022-09-13T07:20:09;10.60;;;7.47;;
11453;SDS011;5783;55.174;61.310;2022-09-13T07:22:39;9.90;;;6.57;;
11453;SDS011;5783;55.174;61.310;2022-09-13T07:25:08;9.60;;;6.30;;
11453;SDS011;5783;55.174;61.310;2022-09-13T07:27:41;10.50;;;6.00;;
11453;SDS011;5783;55.174;61.310;2022-09-13T07:30:10;7.90;;;5.47;;
11453;SDS011;5783;55.174;61.310;2022-09-13T07:32:39;8.97;;;5.07;;
11453;SDS011;5783;55.174;61.310;2022-09-13T07:35:08;10.27;;;5.30;;
11453;SDS011;5783;55.174;61.310;2022-09-13T07:37:37;7.10;;;4.70;;
11453;SDS011;5783;55.174;61.310;2022-09-13T07:40:07;5.87;;;4.33;;
11453;SDS011;5783;55.174;61.310;2022-09-13T07:42:38;5.33;;;4.17;;
11453;SDS011;5783;55.174;61.310;2022-09-13T07:45:08;6.80;;;4.10;;
11453;SDS011;5783;55.174;61.310;2022-09-13T07:47:37;6.37;;;3.83;;
11453;SDS011;5783;55.174;61.310;2022-09-13T07:50:07;6.30;;;3.90;;
11453;SDS011;5783;55.174;61.310;2022-09-13T07:52:37;5.47;;;3.73;;
11453;SDS011;5783;55.174;61.310;2022-09-13T07:55:06;5.80;;;3.90;;
11453;SDS011;5783;55.174;61.310;2022-09-13T07:57:37;5.80;;;3.90;;
11453;SDS011;5783;55.174;61.310;2022-09-13T08:00:07;7.80;;;3.77;;
11453;SDS011;5783;55.174;61.310;2022-09-13T08:08:41;6.40;;;3.50;;
11453;SDS011;5783;55.174;61.310;2022-09-13T08:14:05;6.23;;;3.57;;
11453;SDS011;5783;55.174;61.310;2022-09-13T08:16:38;5.93;;;3.30;;
11453;SDS011;5783;55.174;61.310;2022-09-13T08:19:09;5.87;;;3.27;;
11453;SDS011;5783;55.174;61.310;2022-09-13T08:21:58;5.70;;;3.27;;
11453;SDS011;5783;55.174;61.310;2022-09-13T08:24:27;6.70;;;3.53;;
11453;SDS011;5783;55.174;61.310;2022-09-13T08:26:56;8.57;;;4.00;;
11453;SDS011;5783;55.174;61.310;2022-09-13T08:29:26;6.00;;;3.43;;
11453;SDS011;5783;55.174;61.310;2022-09-13T08:31:55;5.87;;;3.33;;
11453;SDS011;5783;55.174;61.310;2022-09-13T08:34:24;8.83;;;3.70;;
11453;SDS011;5783;55.174;61.310;2022-09-13T08:36:53;5.40;;;3.33;;
11453;SDS011;5783;55.174;61.310;2022-09-13T08:39:23;6.77;;;3.83;;
11453;SDS011;5783;55.174;61.310;2022-09-13T08:41:56;8.13;;;3.70;;
11453;SDS011;5783;55.174;61.310;2022-09-13T08:59:15;7.80;;;3.20;;
11453;SDS011;5783;55.174;61.310;2022-09-13T09:04:36;5.40;;;3.37;;
11453;SDS011;5783;55.174;61.310;2022-09-13T09:10:31;5.37;;;3.40;;
11453;SDS011;5783;55.174;61.310;2022-09-13T09:13:24;9.63;;;3.70;;
11453;SDS011;5783;55.174;61.310;2022-09-13T09:21:24;6.30;;;3.17;;
11453;SDS011;5783;55.174;61.310;2022-09-13T09:23:54;9.17;;;3.40;;
11453;SDS011;5783;55.174;61.310;2022-09-13T09:26:25;6.03;;;2.90;;
11453;SDS011;5783;55.174;61.310;2022-09-13T09:37:48;10.77;;;3.57;;
11453;SDS011;5783;55.174;61.310;2022-09-13T09:40:35;7.70;;;3.30;;
11453;SDS011;5783;55.174;61.310;2022-09-13T09:45:56;8.47;;;3.80;;
11453;SDS011;5783;55.174;61.310;2022-09-13T09:48:28;9.27;;;3.43;;
11453;SDS011;5783;55.174;61.310;2022-09-13T09:50:59;8.20;;;3.17;;
11453;SDS011;5783;55.174;61.310;2022-09-13T09:53:33;7.27;;;3.10;;
11453;SDS011;5783;55.174;61.310;2022-09-13T09:56:25;6.20;;;3.13;;
11453;SDS011;5783;55.174;61.310;2022-09-13T10:05:04;7.30;;;3.10;;
11453;SDS011;5783;55.174;61.310;2022-09-13T10:10:39;6.13;;;3.00;;
11453;SDS011;5783;55.174;61.310;2022-09-13T10:13:28;8.07;;;3.37;;
11453;SDS011;5783;55.174;61.310;2022-09-13T10:24:43;5.00;;;2.50;;
11453;SDS011;5783;55.174;61.310;2022-09-13T10:29:48;5.20;;;2.80;;
11453;SDS011;5783;55.174;61.310;2022-09-13T10:32:21;5.03;;;2.90;;
11453;SDS011;5783;55.174;61.310;2022-09-13T10:34:51;4.80;;;2.40;;
11453;SDS011;5783;55.174;61.310;2022-09-13T10:37:23;6.23;;;2.73;;
11453;SDS011;5783;55.174;61.310;2022-09-13T10:45:36;4.80;;;2.63;;
11453;SDS011;5783;55.174;61.310;2022-09-13T10:48:09;4.80;;;2.53;;
11453;SDS011;5783;55.174;61.310;2022-09-13T10:53:46;4.83;;;2.43;;
11453;SDS011;5783;55.174;61.310;2022-09-13T11:57:37;4.07;;;1.90;;
11453;SDS011;5783;55.174;61.310;2022-09-13T12:06:09;2.03;;;1.50;;
11453;SDS011;5783;55.174;61.310;2022-09-13T12:12:18;2.33;;;1.90;;
11453;SDS011;5783;55.174;61.310;2022-09-13T12:16:53;2.60;;;1.77;;
11453;SDS011;5783;55.174;61.310;2022-09-13T12:20:02;3.37;;;1.57;;
11453;SDS011;5783;55.174;61.310;2022-09-13T12:22:52;2.87;;;1.70;;
11453;SDS011;5783;55.174;61.310;2022-09-13T12:25:24;1.83;;;1.70;;
11453;SDS011;5783;55.174;61.310;2022-09-13T12:33:55;2.70;;;1.90;;
11453;SDS011;5783;55.174;61.310;2022-09-13T13:03:13;2.10;;;1.47;;
11453;SDS011;5783;55.174;61.310;2022-09-13T13:05:45;2.97;;;1.90;;
11453;SDS011;5783;55.174;61.310;2022-09-13T13:16:30;3.10;;;1.60;;
11453;SDS011;5783;55.174;61.310;2022-09-13T13:19:02;2.50;;;1.50;;
11453;SDS011;5783;55.174;61.310;2022-09-13T13:21:34;2.00;;;1.50;;
11453;SDS011;5783;55.174;61.310;2022-09-13T13:26:56;2.90;;;1.80;;
11453;SDS011;5783;55.174;61.310;2022-09-13T13:29:27;2.77;;;1.77;;
11453;SDS011;5783;55.174;61.310;2022-09-13T13:37:24;2.63;;;2.30;;
11453;SDS011;5783;55.174;61.310;2022-09-13T13:40:12;7.13;;;2.90;;
11453;SDS011;5783;55.174;61.310;2022-09-13T13:48:42;5.73;;;3.20;;
11453;SDS011;5783;55.174;61.310;2022-09-13T13:51:12;7.10;;;3.10;;
11453;SDS011;5783;55.174;61.310;2022-09-13T14:01:55;7.60;;;3.40;;
11453;SDS011;5783;55.174;61.310;2022-09-13T14:16:30;10.07;;;6.50;;
11453;SDS011;5783;55.174;61.310;2022-09-13T14:19:18;12.87;;;6.53;;
11453;SDS011;5783;55.174;61.310;2022-09-13T14:25:27;15.07;;;6.90;;
11453;SDS011;5783;55.174;61.310;2022-09-13T14:30:04;10.47;;;7.03;;
11453;SDS011;5783;55.174;61.310;2022-09-13T14:35:27;13.07;;;7.53;;
11453;SDS011;5783;55.174;61.310;2022-09-13T14:43:40;18.57;;;8.40;;
11453;SDS011;5783;55.174;61.310;2022-09-13T14:49:03;20.07;;;8.40;;
11453;SDS011;5783;55.174;61.310;2022-09-13T14:54:27;19.97;;;9.00;;
11453;SDS011;5783;55.174;61.310;2022-09-13T14:56:57;26.07;;;9.07;;
11453;SDS011;5783;55.174;61.310;2022-09-13T14:59:29;21.47;;;8.83;;
11453;SDS011;5783;55.174;61.310;2022-09-13T15:04:51;14.63;;;7.30;;
11453;SDS011;5783;55.174;61.310;2022-09-13T15:07:27;11.87;;;7.00;;
11453;SDS011;5783;55.174;61.310;2022-09-13T15:18:28;10.50;;;6.77;;
11453;SDS011;5783;55.174;61.310;2022-09-13T15:21:15;11.07;;;6.87;;
11453;SDS011;5783;55.174;61.310;2022-09-13T15:26:35;11.47;;;6.70;;
11453;SDS011;5783;55.174;61.310;2022-09-13T15:29:04;10.30;;;6.50;;
11453;SDS011;5783;55.174;61.310;2022-09-13T15:31:36;11.30;;;6.57;;
11453;SDS011;5783;55.174;61.310;2022-09-13T15:42:18;12.33;;;6.63;;
11453;SDS011;5783;55.174;61.310;2022-09-13T15:44:47;11.37;;;6.40;;
11453;SDS011;5783;55.174;61.310;2022-09-13T15:47:16;11.73;;;6.93;;
11453;SDS011;5783;55.174;61.310;2022-09-13T15:49:47;11.17;;;6.63;;
11453;SDS011;5783;55.174;61.310;2022-09-13T15:52:18;12.30;;;6.60;;
11453;SDS011;5783;55.174;61.310;2022-09-13T15:54:49;10.70;;;7.00;;
11453;SDS011;5783;55.174;61.310;2022-09-13T15:57:54;11.90;;;7.17;;
11453;SDS011;5783;55.174;61.310;2022-09-13T16:02:58;13.13;;;6.87;;
11453;SDS011;5783;55.174;61.310;2022-09-13T16:05:29;11.33;;;6.97;;
11453;SDS011;5783;55.174;61.310;2022-09-13T16:08:01;13.43;;;6.93;;
11453;SDS011;5783;55.174;61.310;2022-09-13T16:10:32;14.33;;;7.23;;
11453;SDS011;5783;55.174;61.310;2022-09-13T16:13:03;14.63;;;7.60;;
11453;SDS011;5783;55.174;61.310;2022-09-13T16:15:32;12.97;;;7.50;;
11453;SDS011;5783;55.174;61.310;2022-09-13T16:18:02;13.57;;;7.23;;
11453;SDS011;5783;55.174;61.310;2022-09-13T16:20:31;13.93;;;7.60;;
11453;SDS011;5783;55.174;61.310;2022-09-13T16:23:00;13.13;;;7.63;;
11453;SDS011;5783;55.174;61.310;2022-09-13T16:25:29;15.57;;;8.03;;
11453;SDS011;5783;55.174;61.310;2022-09-13T16:27:59;12.30;;;7.80;;
11453;SDS011;5783;55.174;61.310;2022-09-13T16:30:29;16.13;;;7.20;;
11453;SDS011;5783;55.174;61.310;2022-09-13T16:32:58;14.07;;;7.53;;
11453;SDS011;5783;55.174;61.310;2022-09-13T16:35:29;15.07;;;8.50;;
11453;SDS011;5783;55.174;61.310;2022-09-13T16:38:00;15.87;;;8.13;;
11453;SDS011;5783;55.174;61.310;2022-09-13T16:40:29;12.53;;;7.43;;
11453;SDS011;5783;55.174;61.310;2022-09-13T16:42:58;14.30;;;8.33;;
11453;SDS011;5783;55.174;61.310;2022-09-13T16:45:27;13.13;;;8.07;;
11453;SDS011;5783;55.174;61.310;2022-09-13T16:47:56;14.83;;;7.83;;
11453;SDS011;5783;55.174;61.310;2022-09-13T16:50:25;12.70;;;7.37;;
11453;SDS011;5783;55.174;61.310;2022-09-13T16:52:55;15.47;;;8.03;;
11453;SDS011;5783;55.174;61.310;2022-09-13T16:55:24;13.53;;;7.73;;
11453;SDS011;5783;55.174;61.310;2022-09-13T16:57:53;15.83;;;7.53;;
11453;SDS011;5783;55.174;61.310;2022-09-13T17:00:22;12.93;;;7.63;;
11453;SDS011;5783;55.174;61.310;2022-09-13T17:02:54;12.73;;;7.80;;
11453;SDS011;5783;55.174;61.310;2022-09-13T17:05:24;15.30;;;8.47;;
11453;SDS011;5783;55.174;61.310;2022-09-13T17:07:53;12.03;;;8.03;;
11453;SDS011;5783;55.174;61.310;2022-09-13T17:10:22;12.10;;;7.67;;
11453;SDS011;5783;55.174;61.310;2022-09-13T17:12:53;15.17;;;7.63;;
11453;SDS011;5783;55.174;61.310;2022-09-13T17:15:24;12.60;;;7.37;;
11453;SDS011;5783;55.174;61.310;2022-09-13T17:17:54;11.43;;;7.77;;
11453;SDS011;5783;55.174;61.310;2022-09-13T17:20:25;11.00;;;7.77;;
11453;SDS011;5783;55.174;61.310;2022-09-13T17:22:54;12.00;;;7.87;;
11453;SDS011;5783;55.174;61.310;2022-09-13T17:25:23;13.57;;;7.70;;
11453;SDS011;5783;55.174;61.310;2022-09-13T17:27:52;12.37;;;7.90;;
11453;SDS011;5783;55.174;61.310;2022-09-13T17:30:21;9.60;;;7.20;;
11453;SDS011;5783;55.174;61.310;2022-09-13T17:32:50;11.47;;;7.60;;
11453;SDS011;5783;55.174;61.310;2022-09-13T17:35:20;12.83;;;7.67;;
11453;SDS011;5783;55.174;61.310;2022-09-13T17:37:49;10.73;;;7.60;;
11453;SDS011;5783;55.174;61.310;2022-09-13T17:40:18;10.60;;;7.27;;
11453;SDS011;5783;55.174;61.310;2022-09-13T17:42:47;11.03;;;7.30;;
11453;SDS011;5783;55.174;61.310;2022-09-13T17:45:16;12.13;;;7.23;;
11453;SDS011;5783;55.174;61.310;2022-09-13T17:47:47;11.73;;;7.30;;
11453;SDS011;5783;55.174;61.310;2022-09-13T17:50:37;9.53;;;6.40;;
11453;SDS011;5783;55.174;61.310;2022-09-13T17:53:06;10.73;;;6.77;;
11453;SDS011;5783;55.174;61.310;2022-09-13T17:58:26;8.73;;;6.40;;
11453;SDS011;5783;55.174;61.310;2022-09-13T18:03:44;9.17;;;6.60;;
11453;SDS011;5783;55.174;61.310;2022-09-13T18:06:13;9.23;;;6.10;;
11453;SDS011;5783;55.174;61.310;2022-09-13T18:08:42;9.83;;;6.00;;
11453;SDS011;5783;55.174;61.310;2022-09-13T18:11:13;8.37;;;5.67;;
11453;SDS011;5783;55.174;61.310;2022-09-13T18:13:44;8.37;;;5.63;;
11453;SDS011;5783;55.174;61.310;2022-09-13T18:16:15;8.63;;;5.97;;
11453;SDS011;5783;55.174;61.310;2022-09-13T18:19:04;9.07;;;5.90;;
11453;SDS011;5783;55.174;61.310;2022-09-13T18:21:35;9.00;;;5.80;;
11453;SDS011;5783;55.174;61.310;2022-09-13T18:24:09;7.10;;;5.40;;
11453;SDS011;5783;55.174;61.310;2022-09-13T18:26:38;9.60;;;5.20;;
11453;SDS011;5783;55.174;61.310;2022-09-13T18:31:58;9.30;;;5.23;;
11453;SDS011;5783;55.174;61.310;2022-09-13T18:34:27;7.87;;;5.13;;
11453;SDS011;5783;55.174;61.310;2022-09-13T18:36:56;8.17;;;4.80;;
11453;SDS011;5783;55.174;61.310;2022-09-13T18:39:25;6.77;;;4.50;;
11453;SDS011;5783;55.174;61.310;2022-09-13T18:41:54;6.00;;;4.83;;
11453;SDS011;5783;55.174;61.310;2022-09-13T18:44:25;6.37;;;5.17;;
11453;SDS011;5783;55.174;61.310;2022-09-13T18:46:55;6.80;;;4.93;;
11453;SDS011;5783;55.174;61.310;2022-09-13T18:49:25;8.27;;;4.90;;
11453;SDS011;5783;55.174;61.310;2022-09-13T18:51:54;6.77;;;4.90;;
11453;SDS011;5783;55.174;61.310;2022-09-13T18:54:23;7.03;;;4.83;;
11453;SDS011;5783;55.174;61.310;2022-09-13T18:56:52;7.23;;;5.03;;
11453;SDS011;5783;55.174;61.310;2022-09-13T18:59:22;5.30;;;4.50;;
11453;SDS011;5783;55.174;61.310;2022-09-13T19:01:52;5.43;;;4.50;;
11453;SDS011;5783;55.174;61.310;2022-09-13T19:04:21;5.17;;;4.43;;
11453;SDS011;5783;55.174;61.310;2022-09-13T19:06:52;6.47;;;4.50;;
11453;SDS011;5783;55.174;61.310;2022-09-13T19:09:22;6.60;;;4.43;;
11453;SDS011;5783;55.174;61.310;2022-09-13T19:11:52;5.40;;;4.47;;
11453;SDS011;5783;55.174;61.310;2022-09-13T19:14:22;9.00;;;4.87;;
11453;SDS011;5783;55.174;61.310;2022-09-13T19:16:55;8.37;;;4.97;;
11453;SDS011;5783;55.174;61.310;2022-09-13T19:19:26;7.07;;;4.60;;
11453;SDS011;5783;55.174;61.310;2022-09-13T19:21:56;6.87;;;4.37;;
11453;SDS011;5783;55.174;61.310;2022-09-13T19:27:16;5.80;;;4.63;;
11453;SDS011;5783;55.174;61.310;2022-09-13T19:29:45;7.90;;;5.23;;
11453;SDS011;5783;55.174;61.310;2022-09-13T19:32:14;6.37;;;5.13;;
11453;SDS011;5783;55.174;61.310;2022-09-13T19:34:43;6.33;;;5.17;;
11453;SDS011;5783;55.174;61.310;2022-09-13T19:37:12;6.00;;;4.70;;
11453;SDS011;5783;55.174;61.310;2022-09-13T19:39:41;6.23;;;4.70;;
11453;SDS011;5783;55.174;61.310;2022-09-13T19:42:14;6.63;;;5.03;;
11453;SDS011;5783;55.174;61.310;2022-09-13T19:44:43;6.50;;;5.07;;
11453;SDS011;5783;55.174;61.310;2022-09-13T19:47:12;8.40;;;5.40;;
11453;SDS011;5783;55.174;61.310;2022-09-13T19:49:41;7.30;;;5.00;;
11453;SDS011;5783;55.174;61.310;2022-09-13T19:52:10;6.00;;;5.00;;
11453;SDS011;5783;55.174;61.310;2022-09-13T19:54:39;7.10;;;5.07;;
11453;SDS011;5783;55.174;61.310;2022-09-13T19:57:08;6.70;;;5.40;;
11453;SDS011;5783;55.174;61.310;2022-09-13T19:59:37;7.13;;;5.60;;
11453;SDS011;5783;55.174;61.310;2022-09-13T20:04:37;6.53;;;5.80;;
11453;SDS011;5783;55.174;61.310;2022-09-13T20:07:07;7.33;;;5.30;;
11453;SDS011;5783;55.174;61.310;2022-09-13T20:09:37;6.67;;;5.50;;
11453;SDS011;5783;55.174;61.310;2022-09-13T20:12:07;7.13;;;5.83;;
11453;SDS011;5783;55.174;61.310;2022-09-13T20:15:18;9.00;;;6.13;;
11453;SDS011;5783;55.174;61.310;2022-09-13T20:17:50;7.57;;;5.30;;
11453;SDS011;5783;55.174;61.310;2022-09-13T20:20:19;7.27;;;5.93;;
11453;SDS011;5783;55.174;61.310;2022-09-13T20:22:49;8.03;;;5.73;;
11453;SDS011;5783;55.174;61.310;2022-09-13T20:27:49;8.03;;;5.73;;
11453;SDS011;5783;55.174;61.310;2022-09-13T20:30:18;8.13;;;5.70;;
11453;SDS011;5783;55.174;61.310;2022-09-13T20:32:47;6.60;;;5.43;;
11453;SDS011;5783;55.174;61.310;2022-09-13T20:35:19;7.93;;;5.60;;
11453;SDS011;5783;55.174;61.310;2022-09-13T20:37:49;6.27;;;5.20;;
11453;SDS011;5783;55.174;61.310;2022-09-13T20:40:18;7.03;;;5.60;;
11453;SDS011;5783;55.174;61.310;2022-09-13T20:42:48;6.80;;;5.60;;
11453;SDS011;5783;55.174;61.310;2022-09-13T20:45:17;7.63;;;5.30;;
11453;SDS011;5783;55.174;61.310;2022-09-13T20:47:47;8.27;;;5.47;;
11453;SDS011;5783;55.174;61.310;2022-09-13T20:50:16;6.50;;;5.07;;
11453;SDS011;5783;55.174;61.310;2022-09-13T20:52:45;7.73;;;5.30;;
11453;SDS011;5783;55.174;61.310;2022-09-13T20:55:15;5.47;;;4.80;;
11453;SDS011;5783;55.174;61.310;2022-09-13T20:57:44;6.87;;;5.20;;
11453;SDS011;5783;55.174;61.310;2022-09-13T21:00:13;6.63;;;5.00;;
11453;SDS011;5783;55.174;61.310;2022-09-13T21:02:42;6.70;;;5.03;;
11453;SDS011;5783;55.174;61.310;2022-09-13T21:05:11;5.63;;;4.53;;
11453;SDS011;5783;55.174;61.310;2022-09-13T21:07:40;6.43;;;4.93;;
11453;SDS011;5783;55.174;61.310;2022-09-13T21:10:29;5.80;;;4.80;;
11453;SDS011;5783;55.174;61.310;2022-09-13T21:12:58;6.53;;;4.80;;
11453;SDS011;5783;55.174;61.310;2022-09-13T21:15:28;6.33;;;4.30;;
11453;SDS011;5783;55.174;61.310;2022-09-13T21:17:57;5.40;;;4.30;;
11453;SDS011;5783;55.174;61.310;2022-09-13T21:20:26;5.33;;;4.50;;
11453;SDS011;5783;55.174;61.310;2022-09-13T21:22:56;7.53;;;4.40;;
11453;SDS011;5783;55.174;61.310;2022-09-13T21:25:26;6.00;;;4.50;;
11453;SDS011;5783;55.174;61.310;2022-09-13T21:27:55;5.30;;;4.27;;
11453;SDS011;5783;55.174;61.310;2022-09-13T21:30:24;5.50;;;4.00;;
11453;SDS011;5783;55.174;61.310;2022-09-13T21:32:53;8.33;;;4.40;;
11453;SDS011;5783;55.174;61.310;2022-09-13T21:35:22;8.10;;;4.00;;
11453;SDS011;5783;55.174;61.310;2022-09-13T21:37:52;5.70;;;3.97;;
11453;SDS011;5783;55.174;61.310;2022-09-13T21:40:21;5.97;;;4.10;;
11453;SDS011;5783;55.174;61.310;2022-09-13T21:42:50;4.77;;;3.93;;
11453;SDS011;5783;55.174;61.310;2022-09-13T21:45:19;7.40;;;4.00;;
11453;SDS011;5783;55.174;61.310;2022-09-13T21:47:48;4.60;;;3.73;;
11453;SDS011;5783;55.174;61.310;2022-09-13T21:50:17;6.10;;;3.90;;
11453;SDS011;5783;55.174;61.310;2022-09-13T21:52:47;7.10;;;4.17;;
11453;SDS011;5783;55.174;61.310;2022-09-13T21:55:16;4.90;;;3.90;;
11453;SDS011;5783;55.174;61.310;2022-09-13T21:57:45;4.77;;;4.13;;